Mateus Lopes

Olheiro - Internacional
3 Abr 2027
Sábado
Processo

Personalidade

Adaptabilidade (12) Ambição (2) Controvérsia (12) Lealdade (20) Pressão (11) Profissionalismo (15) Espírito Esportivo (5) Temperamento (9)

Perfil

Estilo de Treinamento Democrático
Licença Continental Pro
Determinação 9
Gestão de Pessoas 9
Motivação 9
Disciplina 13
Satisfação no Trabalho
50%
Fadiga
0%
Função Olheiro
Salário 93.0K p/s
Contrato 14.03.2030

Desempenho

Comportamento Normal
Eficácia do Treinamento
22%
Desenvolvimento do Jogador
70%
Prevenção de Lesões
45%
Implementação Tática
50%

Eventos Recentes

Participou de uma reunião de recrutamento agora
Avaliou um jogador agora
Participou de uma reunião de recrutamento 7d atrás
Avaliou um jogador 7d atrás
Avaliou um jogador 7d atrás
Avaliou um jogador 14d atrás
Participou de uma reunião de recrutamento 14d atrás
Avaliou um jogador 14d atrás

Monitorando agora

163
Jogador Clube Status Habilidade Confiança Observado Última observação Último voto
Ianis Stoica Estrela da Amadora Ativo 117 / 112 40% 5 02.04.2027 -
Figueiredo Alverca Ativo 134 / 130 40% 1 02.04.2027 -
André Lacximicant Estoril Praia Ativo 119 / 113 40% 2 01.04.2027 -
Dom Ballard Leyton Orient Ativo 119 / 118 40% 4 01.04.2027 -
Etiosa Ighodaro Kaizer Chiefs Ativo 118 / 111 40% 1 01.04.2027 -
Martín Tejón Maritimo Ativo 121 / 120 40% 5 31.03.2027 -
Khayon Edwards Estoril Praia Ativo 100 / 107 40% 1 31.03.2027 -
Itumeleng Tau Ajax Cape Town Ativo 120 / 126 40% 2 28.03.2027 -
Lorent Tolaj Plymouth Argyle Ativo 113 / 110 40% 2 28.03.2027 -
Niall Ennis Blackpool Ativo 118 / 122 40% 1 28.03.2027 -
Raúl Alcaina Penafiel Ativo 107 / 110 40% 4 27.03.2027 -
Stephen Amankona Aduana Stars Ativo 103 / 97 40% 4 27.03.2027 -
Amos Inusah Wa All Stars Ativo 122 / 100 40% 1 27.03.2027 -
Bryan Limbombe Maritimo Ativo 108 / 118 40% 1 19.03.2027 -
Efraín Álvarez Guadalajara Ativo 125 / 136 40% 4 15.03.2027 -
José Bica Leixões Ativo 107 / 112 40% 3 15.03.2027 -
Dylan Nandín Arouca Ativo 119 / 120 40% 4 14.03.2027 -
Gustavo Silva Vitoria Guimaraes Ativo 132 / 111 40% 1 14.03.2027 -
Luccas Paraízo Leixões Ativo 111 / 96 40% 3 12.03.2027 -
Samy Merheg Alverca Ativo 102 / 124 40% 2 12.03.2027 -
Mésaque Djú Portimonense Ativo 101 / 90 40% 3 10.03.2027 -
Florián Monzón Atlas Ativo 118 / 119 40% 3 22.02.2027 -
Sydney van Hooijdonk Estrela da Amadora Ativo 120 / 104 40% 4 22.02.2027 -
Evidence Makgopa Orlando Pirates Ativo 123 / 117 40% 1 22.02.2027 -
Toni Tamarit Alverca Ativo 115 / 130 40% 4 21.02.2027 -
Hlompho Modiba Black Aces Ativo 92 / 89 40% 1 21.02.2027 -
Gabriel Barbosa Farense Ativo 103 / 102 40% 1 20.02.2027 -
Giorgos Koutsias Famalicao Ativo 114 / 127 40% 4 18.02.2027 -
Jorge Aguirre Torreense Ativo 97 / 94 40% 4 18.02.2027 -
Ashkan Shojaei Siah Jamegan Ativo 120 / 123 40% 2 18.02.2027 -
Miguel Falé Pacos de Ferreira Ativo 101 / 111 40% 1 17.02.2027 -
Korede Osundina Casa Pia Ativo 113 / 108 40% 5 06.02.2027 -
Vinícius Lopes Santa Clara Ativo 115 / 118 40% 3 06.02.2027 -
Allahyar Sayyadmanesh Lech Ativo 122 / 138 40% 1 06.02.2027 -
João Costa Santa Clara Ativo 108 / 111 40% 1 23.01.2027 -
Jalen Blesa Rio Ave Ativo 119 / 110 40% 2 16.01.2027 -
Alfonso Trezza Arouca Ativo 130 / 121 40% 1 16.01.2027 -
Yassin Fortuné Vizela Ativo 114 / 105 40% 2 13.01.2027 -
Alexandre Duville-Parsemain Moreirense Ativo 102 / 98 40% 1 13.01.2027 -
Henrique Araújo Casa Pia Ativo 130 / 121 40% 2 11.01.2027 -
Camilo Durán Bloemfontein Celtic Ativo 113 / 122 40% 4 08.01.2027 -
Jonas Wind Braga Ativo 137 / 131 40% 1 08.01.2027 -
Nicolò Tresoldi Club Brugge Ativo 133 / 128 40% 1 08.01.2027 -
Brenner Vasco da Gama Ativo 131 / 121 40% 2 01.01.2027 -
Gabriel Novaes Nacional Ativo 113 / 114 40% 2 24.12.2026 -
Matheus Henrique Cruzeiro Ativo 136 / 126 40% 3 30.11.2026 -
Kaveh Mohammadi Padideh Ativo 125 / 125 40% 1 30.11.2026 -
Jorge Meireles AVS Ativo 116 / 101 40% 3 29.11.2026 -
Federico Pereira Toluca Ativo 130 / 125 40% 3 29.11.2026 -
Rubén Duarte Pumas UNAM Ativo 131 / 130 40% 3 25.11.2026 -
Jon Guridi Sevilla Ativo 142 / 139 40% 1 25.11.2026 -
Exequiel Zeballos Boca Juniors Ativo 129 / 138 40% 4 24.11.2026 -
Luís Guilherme Sporting CP Ativo 126 / 137 40% 2 24.11.2026 -
David Costa Torreense Ativo 112 / 93 40% 1 24.11.2026 -
Taichi Fukui Arouca Ativo 128 / 125 40% 3 23.11.2026 -
Vinicinho Bragantino Ativo 127 / 120 40% 1 23.11.2026 -
Ivan Edson Veracruz Ativo 139 / 144 40% 1 22.11.2026 -
Matheus Dias Nacional Ativo 125 / 128 40% 2 21.11.2026 -
Álvaro Martínez Moreirense Ativo 112 / 128 40% 1 21.11.2026 -
Willer Ditta Cruz Azul Ativo 131 / 117 40% 2 20.11.2026 -
Erik Lira Cruz Azul Ativo 145 / 118 40% 1 20.11.2026 -
Vitinho Botafogo Ativo 141 / 137 40% 1 20.11.2026 -
Tamble Monteiro Rio Ave Ativo 129 / 110 40% 2 15.11.2026 -
Martinelli Fluminense Ativo 133 / 145 40% 2 14.11.2026 -
Kevin Prieto Casa Pia Ativo 101 / 127 40% 2 14.11.2026 -
Victor Hugo Atlético Mineiro Ativo 131 / 136 40% 1 14.11.2026 -
Sabino Sport Recife Ativo 126 / 121 40% 1 14.11.2026 -
Lee Hyun-Ju Arouca Ativo 128 / 119 40% 5 08.11.2026 -
Óscar Aranda Espanyol Ativo 131 / 134 40% 1 08.11.2026 -
Thapelo Maseko FC Copenhagen Ativo 116 / 133 40% 1 08.11.2026 -
Lucas Duarte Felgueiras Ativo 116 / 109 40% 2 05.11.2026 -
Rok Zajc NK Domzale Ativo 122 / 135 40% 1 05.11.2026 -
Damián Bobadilla Sport Recife Ativo 131 / 127 40% 1 05.11.2026 -
Israel Reyes Club America Ativo 143 / 125 40% 1 05.11.2026 -
Rodrigo Ramos Moreirense Ativo 111 / 122 40% 3 03.11.2026 -
Luka Romero Cruz Azul Ativo 121 / 116 40% 1 03.11.2026 -
Kélian Nsona Casa Pia Ativo 109 / 114 40% 1 03.11.2026 -
Santiago Sosa Vasco da Gama Ativo 133 / 129 40% 1 01.11.2026 -
Víctor Guzmán Monterrey Ativo 122 / 124 40% 1 01.11.2026 -
Fabrício Bruno Cruzeiro Ativo 140 / 144 40% 2 31.10.2026 -
Jordan Holsgrove Estoril Praia Ativo 137 / 117 40% 2 31.10.2026 -
Joe Hodge Tondela Ativo 120 / 111 40% 2 30.10.2026 -
Brenner Santa Clara Ativo 116 / 126 40% 4 28.10.2026 -
Diogo Spencer Alverca Ativo 109 / 103 40% 1 28.10.2026 -
William Cruzeiro Ativo 135 / 125 40% 2 24.10.2026 -
Santiago Ascacíbar Boca Juniors Ativo 131 / 136 40% 1 23.10.2026 -
Sebastián Cáceres Club America Ativo 131 / 133 40% 1 23.10.2026 -
Kevin Lomónaco Independiente Ativo 126 / 128 40% 1 23.10.2026 -
Majid Dejagah Gostaresh Foulad Ativo 124 / 132 40% 2 20.10.2026 -
Tomás Chancalay Minnesota United FC Ativo 128 / 138 40% 1 19.10.2026 -
Marcos Paulo Juventude Ativo 114 / 107 40% 1 18.10.2026 -
Fabio Blanco Vitoria Guimaraes Ativo 115 / 121 40% 3 17.10.2026 -
Beni Mukendi Vitoria Guimaraes Ativo 130 / 129 40% 2 17.10.2026 -
Espen van Ee Arouca Ativo 108 / 120 40% 1 15.10.2026 -
Thauan Lara Portimonense Ativo 102 / 111 40% 2 14.10.2026 -
Relebohile Mofokeng Orlando Pirates Ativo 126 / 122 40% 1 14.10.2026 -
Lucas Veríssimo Santos Ativo 140 / 132 40% 1 14.10.2026 -
Ayrton Costa Boca Juniors Ativo 130 / 140 40% 1 14.10.2026 -
Bruno Méndez Toluca Ativo 124 / 119 40% 1 14.10.2026 -
Kevin Álvarez Club America Ativo 130 / 121 40% 1 13.10.2026 -
Rodrigo Pinheiro Famalicao Ativo 129 / 143 40% 2 12.10.2026 -
Brian Gutiérrez Guadalajara Ativo 132 / 121 40% 1 12.10.2026 -
Tony Strata Vitoria Guimaraes Ativo 112 / 113 40% 1 12.10.2026 -
Percy Erasmus SuperSport United Ativo 122 / 126 40% 1 12.10.2026 -
Isidro Pitta Bragantino Ativo 131 / 117 40% 1 12.10.2026 -
Joaquim Tigres Ativo 133 / 129 40% 1 08.10.2026 -
Marcos Antonio Sport Recife Ativo 134 / 134 40% 1 05.10.2026 -
Iker Benito Queretaro Ativo 127 / 119 40% 1 04.10.2026 -
João Marques Braga Ativo 121 / 129 40% 1 04.10.2026 -
Telasco Segovia Inter Miami CF Ativo 135 / 145 40% 2 01.10.2026 -
Omar Campos Cruz Azul Ativo 116 / 134 40% 1 01.10.2026 -
Afonso Assis Moreirense Ativo 107 / 126 40% 1 01.10.2026 -
Luciano Juba Bahia Ativo 141 / 121 40% 3 30.09.2026 -
Alex Luna Instituto Ativo 131 / 138 40% 1 30.09.2026 -
Javi Sánchez Arouca Ativo 125 / 127 40% 1 30.09.2026 -
Martim Fernandes Porto Ativo 135 / 154 40% 2 29.09.2026 -
Saúl Flamengo Ativo 141 / 134 40% 1 29.09.2026 -
Alexis Cuello San Lorenzo Ativo 121 / 114 40% 1 26.09.2026 -
Ozziel Herrera Tigres Ativo 136 / 111 40% 1 21.09.2026 -
Francisco Moura Porto Ativo 131 / 124 40% 1 18.09.2026 -
Francisco Domingues Moreirense Ativo 115 / 101 40% 2 17.09.2026 -
Talles Magno New York City Ativo 127 / 128 40% 2 17.09.2026 -
Tomás O'Connor Gimnasia y Esgrima Ativo 126 / 129 40% 1 17.09.2026 -
Manu Pozo Torreense Ativo 113 / 127 40% 2 15.09.2026 -
Manuel Mendonça Moreirense Ativo 109 / 117 40% 1 13.09.2026 -
Tiago Ribeiro Oliveirense Ativo 108 / 127 40% 1 13.09.2026 -
Renan Lodi Atlético Mineiro Ativo 136 / 133 40% 3 12.09.2026 -
Gustaf Lagerbielke Braga Ativo 137 / 119 40% 1 12.09.2026 -
Alessandro Circati Benfica Ativo 135 / 122 40% 2 11.09.2026 -
Vitor Carvalho Braga Ativo 123 / 146 40% 1 11.09.2026 -
Hwang In-Beom Porto Ativo 141 / 147 40% 2 10.09.2026 -
Enzo Díaz Sport Recife Ativo 137 / 135 40% 1 10.09.2026 -
Sergio Quintero La Equidad Ativo 138 / 138 40% 1 10.09.2026 -
Haissem Hassan Bloemfontein Celtic Ativo 122 / 150 40% 1 09.09.2026 -
Roland Galčík Rio Ave Ativo 118 / 123 40% 1 08.09.2026 -
Cesar Corona Veracruz Ativo 144 / 133 40% 1 08.09.2026 -
Paulinho Palmeiras Ativo 142 / 145 40% 1 08.09.2026 -
Diogo Bezerra Rio Ave Ativo 113 / 102 40% 1 30.08.2026 -
Lovro Zvonarek Estrela da Amadora Ativo 117 / 131 40% 1 29.08.2026 -
Gabriel Silva Braga Ativo 117 / 138 40% 1 29.08.2026 -
Gabriel Veron Porto Ativo 128 / 111 40% 1 27.08.2026 -
Salvador Blopá Sporting CP Ativo 104 / 117 40% 1 24.08.2026 -
Gianluca Prestianni Benfica Ativo 129 / 126 40% 1 24.08.2026 -
Diogo Travassos Braga Ativo 128 / 139 40% 2 23.08.2026 -
Max Scholze Estrela da Amadora Ativo 111 / 118 40% 1 23.08.2026 -
Santi García Gil Vicente Ativo 137 / 144 40% 1 21.08.2026 -
Soma Anzai FC Tokyo Ativo 120 / 117 40% 1 21.08.2026 -
Lohann Doucet Vitoria Guimaraes Ativo 119 / 131 40% 1 18.08.2026 -
William Gomes Porto Ativo 128 / 143 40% 1 16.08.2026 -
Danilo Botafogo Ativo 140 / 126 40% 1 16.08.2026 -
Gustavo Garcia Famalicao Ativo 116 / 120 40% 1 14.08.2026 -
Nuno Santos Sporting CP Ativo 132 / 131 40% 1 13.08.2026 -
Evander FC Cincinnati Ativo 142 / 145 40% 1 13.08.2026 -
Sergi Altimira Sporting CP Ativo 136 / 157 40% 1 07.08.2026 -
Alberto Costa Porto Ativo 145 / 155 40% 1 05.08.2026 -
Francisco Chissumba Braga Ativo 112 / 106 40% 1 05.08.2026 -
Leonardo Lelo Braga Ativo 139 / 144 40% 1 05.08.2026 -
Joaquín Piquerez Palmeiras Ativo 138 / 134 40% 1 04.08.2026 -
Zeno Debast Sporting CP Ativo 128 / 140 40% 1 04.08.2026 -
Caio Alexandre Bahia Ativo 136 / 147 40% 1 02.08.2026 -
Alexander Bah Benfica Ativo 139 / 121 40% 1 02.08.2026 -
Issa Doumbia Sporting CP Ativo 109 / 115 40% 1 02.08.2026 -
Matija Mitrović Vitoria Guimaraes Ativo 118 / 121 40% 1 02.08.2026 -